createdAt,value
2022-11-07T00:03:55.103Z,98775.75
2022-11-07T00:08:59.609Z,98762.75
2022-11-07T00:14:03.915Z,98749.31
2022-11-07T00:19:06.818Z,98750.06
2022-11-07T00:24:10.667Z,98762.16
2022-11-07T00:29:16.255Z,98759.72
2022-11-07T00:34:19.598Z,98779.19
2022-11-07T00:39:22.745Z,98780.81
2022-11-07T00:44:27.089Z,98786.63
2022-11-07T00:49:30.003Z,98790.47
2022-11-07T00:54:32.891Z,98784.25
2022-11-07T00:59:37.163Z,98779.03
2022-11-07T01:04:57.553Z,98794.44
2022-11-07T01:10:00.534Z,98792.22
2022-11-07T01:15:05.257Z,98778.78
2022-11-07T01:20:09.528Z,98768.53
2022-11-07T01:25:12.442Z,98754.41
2022-11-07T01:30:16.769Z,98756.03
2022-11-07T01:35:19.733Z,98750.06
2022-11-07T01:40:22.778Z,98745.16
2022-11-07T01:45:29.631Z,98745.38
2022-11-07T01:50:32.879Z,98741.03
2022-11-07T01:55:37.022Z,98755.50
2022-11-07T02:00:41.421Z,98764.16
2022-11-07T02:05:50.019Z,98752.47
2022-11-07T02:10:54.712Z,98758.75
2022-11-07T02:16:00.967Z,98772.19
2022-11-07T02:21:12.112Z,98756.50
2022-11-07T02:26:16.814Z,98748.06
2022-11-07T02:31:19.755Z,98750.47
2022-11-07T02:36:25.355Z,98753.88
2022-11-07T02:41:35.050Z,98763.50
2022-11-07T02:46:38.562Z,98772.94
2022-11-07T02:51:41.459Z,98751.00
2022-11-07T02:56:45.882Z,98749.50
2022-11-07T03:01:48.905Z,98755.31
2022-11-07T03:06:51.974Z,98768.31
2022-11-07T03:11:56.435Z,98776.81
2022-11-07T03:16:59.387Z,98775.78
2022-11-07T03:22:02.537Z,98780.97
2022-11-07T03:27:06.868Z,98789.69
2022-11-07T03:32:09.832Z,98790.56
2022-11-07T03:37:12.801Z,98810.13
2022-11-07T03:42:17.114Z,98821.44
2022-11-07T03:47:20.066Z,98830.41
2022-11-07T03:52:22.958Z,98841.28
2022-11-07T03:57:27.283Z,98846.75
2022-11-07T04:02:30.326Z,98864.34
2022-11-07T04:07:33.338Z,98863.75
2022-11-07T04:12:55.350Z,98861.75
2022-11-07T04:17:58.271Z,98862.25
2022-11-07T04:23:01.177Z,98883.56
2022-11-07T04:28:05.798Z,98876.81
2022-11-07T04:33:08.714Z,98887.91
2022-11-07T04:38:11.669Z,98901.63
2022-11-07T04:43:16.205Z,98886.88
2022-11-07T04:48:19.970Z,98887.84
2022-11-07T04:53:23.212Z,98887.56
2022-11-07T04:58:27.523Z,98895.22
2022-11-07T05:03:30.444Z,98892.66
2022-11-07T05:08:33.331Z,98887.88
2022-11-07T05:13:37.636Z,98905.41
2022-11-07T05:18:40.505Z,98906.50
2022-11-07T05:23:43.437Z,98904.47
2022-11-07T05:28:47.709Z,98900.31
2022-11-07T05:33:50.607Z,98908.50
2022-11-07T05:38:54.598Z,98911.22
2022-11-07T05:43:59.367Z,98922.56
2022-11-07T05:49:02.262Z,98912.44
2022-11-07T05:54:05.355Z,98921.66
2022-11-07T05:59:10.039Z,98936.31
2022-11-07T06:04:12.910Z,98941.25
2022-11-07T06:09:15.930Z,98948.63
2022-11-07T06:14:20.314Z,98947.66
2022-11-07T06:19:23.205Z,98946.41
2022-11-07T06:24:26.086Z,98947.75
2022-11-07T06:29:30.403Z,98944.78
2022-11-07T06:34:33.311Z,98953.50
2022-11-07T06:39:36.213Z,98955.72
2022-11-07T06:44:40.480Z,98959.78
2022-11-07T06:49:43.379Z,98956.13
2022-11-07T06:54:46.354Z,98961.00
2022-11-07T06:59:52.040Z,98961.44
2022-11-07T07:04:55.104Z,98963.91
2022-11-07T07:09:58.057Z,98971.75
2022-11-07T07:15:02.406Z,98971.75
2022-11-07T07:20:06.935Z,98993.16
2022-11-07T07:25:11.598Z,99001.56
2022-11-07T07:30:16.584Z,99019.13
2022-11-07T07:35:19.543Z,99017.75
2022-11-07T07:40:22.967Z,99018.63
2022-11-07T07:45:27.314Z,98997.66
2022-11-07T07:50:30.275Z,98986.22
2022-11-07T07:55:33.202Z,99005.66
2022-11-07T08:00:37.511Z,98995.09
2022-11-07T08:05:41.022Z,99002.22
2022-11-07T08:10:43.937Z,99008.97
2022-11-07T08:15:48.223Z,99008.75
2022-11-07T08:20:52.292Z,99014.03
2022-11-07T08:25:57.383Z,99016.78
2022-11-07T08:31:04.355Z,99021.97
2022-11-07T08:36:08.657Z,99004.53
2022-11-07T08:41:11.562Z,99014.81
2022-11-07T08:46:15.918Z,99007.34
2022-11-07T08:51:18.845Z,99009.59
2022-11-07T08:56:21.740Z,99010.78
2022-11-07T09:01:26.125Z,99012.75
2022-11-07T09:06:29.114Z,99007.56
2022-11-07T09:11:32.096Z,99007.50
2022-11-07T09:16:36.375Z,99011.22
2022-11-07T09:21:39.425Z,99003.00
2022-11-07T09:26:42.344Z,99013.03
2022-11-07T09:31:46.627Z,99018.78
2022-11-07T09:36:49.522Z,99017.56
2022-11-07T09:41:57.740Z,99014.47
2022-11-07T09:47:08.200Z,99005.22
2022-11-07T09:52:17.117Z,99013.75
2022-11-07T09:57:21.182Z,99009.06
2022-11-07T10:02:30.355Z,98995.84
2022-11-07T10:07:47.276Z,98999.00
2022-11-07T10:13:11.866Z,99003.81
2022-11-07T10:18:23.953Z,98996.13
2022-11-07T10:23:40.529Z,98996.03
2022-11-07T10:28:46.285Z,98998.59
2022-11-07T10:33:55.254Z,99005.56
2022-11-07T10:38:58.636Z,99000.91
2022-11-07T10:44:04.538Z,99001.72
2022-11-07T10:49:19.975Z,99015.69
2022-11-07T10:54:29.152Z,99014.19
2022-11-07T10:59:36.423Z,99012.22
2022-11-07T11:04:51.078Z,99013.50
2022-11-07T11:09:56.665Z,99014.59
2022-11-07T11:15:14.304Z,98997.50
2022-11-07T11:20:47.576Z,98998.16
2022-11-07T11:25:52.700Z,98996.47
2022-11-07T11:31:00.185Z,98995.75
2022-11-07T11:36:12.080Z,98993.00
2022-11-07T11:41:21.407Z,98984.09
2022-11-07T11:46:31.828Z,98994.16
2022-11-07T11:51:42.051Z,98981.25
2022-11-07T11:56:53.290Z,98997.66
2022-11-07T12:02:10.374Z,98993.81
2022-11-07T12:07:32.415Z,98990.19
2022-11-07T12:12:49.637Z,98983.06
2022-11-07T12:17:59.829Z,98997.63
2022-11-07T12:23:19.652Z,98984.09
2022-11-07T12:28:37.643Z,98985.47
2022-11-07T12:33:48.774Z,98984.47
2022-11-07T12:39:09.895Z,98973.31
2022-11-07T12:44:31.060Z,98961.75
2022-11-07T12:49:45.815Z,98972.44
2022-11-07T12:54:57.194Z,98976.28
2022-11-07T13:00:06.587Z,98973.69
2022-11-07T13:05:36.343Z,98979.31
2022-11-07T13:10:52.106Z,98964.28
2022-11-07T13:16:14.586Z,98978.00
2022-11-07T13:21:17.999Z,98973.59
2022-11-07T13:26:46.840Z,98976.34
2022-11-07T13:32:05.400Z,98971.34
2022-11-07T13:37:14.273Z,98983.13
2022-11-07T13:42:19.916Z,98983.72
2022-11-07T13:47:30.702Z,98976.84
2022-11-07T13:52:42.083Z,98979.38
2022-11-07T13:57:53.471Z,98994.88
2022-11-07T14:02:58.394Z,98995.84
2022-11-07T14:08:03.681Z,99001.09
2022-11-07T14:13:10.079Z,99001.44
2022-11-07T14:18:16.659Z,99012.25
2022-11-07T14:23:22.602Z,99002.03
2022-11-07T14:28:34.534Z,99011.72
2022-11-07T14:33:37.668Z,99011.13
2022-11-07T14:38:47.968Z,99015.50
2022-11-07T14:43:53.216Z,99010.72
2022-11-07T14:48:56.668Z,99007.41
2022-11-07T14:54:04.894Z,99014.72
2022-11-07T14:59:11.945Z,99003.19
2022-11-07T15:04:29.467Z,99008.78
2022-11-07T15:09:33.812Z,99011.75
2022-11-07T15:14:38.570Z,99007.19
2022-11-07T15:19:41.630Z,99002.94
2022-11-07T15:24:46.322Z,99002.94
2022-11-07T15:29:56.013Z,99007.31
2022-11-07T15:35:12.421Z,99016.97
2022-11-07T15:40:23.327Z,99014.25
2022-11-07T15:45:27.843Z,99011.72
2022-11-07T15:50:30.755Z,99004.28
2022-11-07T15:55:34.493Z,99011.16
2022-11-07T16:00:38.796Z,99006.69
2022-11-07T16:05:42.497Z,99021.09
2022-11-07T16:10:48.326Z,99025.63
2022-11-07T16:15:57.275Z,99025.97
2022-11-07T16:21:00.243Z,99034.75
2022-11-07T16:26:03.383Z,99030.72
2022-11-07T16:31:07.774Z,99039.59
2022-11-07T16:36:21.608Z,99042.59
2022-11-07T16:41:24.932Z,99050.69
2022-11-07T16:46:30.147Z,99050.34
2022-11-07T16:51:33.139Z,99045.91
2022-11-07T16:56:36.603Z,99036.69
2022-11-07T17:01:41.096Z,99045.44
2022-11-07T17:06:47.639Z,99054.56
2022-11-07T17:11:50.732Z,99056.00
2022-11-07T17:16:55.071Z,99046.94
2022-11-07T17:21:58.546Z,99058.06
2022-11-07T17:27:01.715Z,99051.00
2022-11-07T17:32:06.434Z,99057.84
2022-11-07T17:37:15.166Z,99058.94
2022-11-07T17:42:18.194Z,99072.66
2022-11-07T17:47:29.257Z,99083.97
2022-11-07T17:52:32.272Z,99079.41
2022-11-07T17:57:35.279Z,99071.25
2022-11-07T18:02:39.998Z,99074.13
2022-11-07T18:07:44.131Z,99063.56
2022-11-07T18:12:47.062Z,99068.19
2022-11-07T18:17:51.391Z,99080.72
2022-11-07T18:22:54.372Z,99081.72
2022-11-07T18:27:57.295Z,99078.56
2022-11-07T18:33:01.604Z,99069.97
2022-11-07T18:38:04.624Z,99074.50
2022-11-07T18:43:09.978Z,99078.69
2022-11-07T18:48:16.605Z,99073.44
2022-11-07T18:53:20.238Z,99060.44
2022-11-07T18:58:23.152Z,99070.31
2022-11-07T19:03:27.547Z,99080.19
2022-11-07T19:08:32.007Z,99075.25
2022-11-07T19:13:36.391Z,99074.84
2022-11-07T19:18:44.106Z,99073.38
2022-11-07T19:23:50.418Z,99071.38
2022-11-07T19:28:54.276Z,99075.25
2022-11-07T19:33:58.776Z,99079.53
2022-11-07T19:39:03.019Z,99073.81
2022-11-07T19:44:07.231Z,99075.84
2022-11-07T19:49:11.743Z,99085.28
2022-11-07T19:54:14.644Z,99090.91
2022-11-07T19:59:17.546Z,99081.69
2022-11-07T20:04:21.872Z,99086.59
2022-11-07T20:09:24.821Z,99080.00
2022-11-07T20:14:27.814Z,99081.78
2022-11-07T20:19:33.953Z,99086.59
2022-11-07T20:24:36.870Z,99084.97
2022-11-07T20:29:39.782Z,99088.00
2022-11-07T20:34:44.319Z,99089.50
2022-11-07T20:39:47.252Z,99108.38
2022-11-07T20:44:51.026Z,99107.34
2022-11-07T20:49:55.701Z,99102.88
2022-11-07T20:54:58.734Z,99105.56
2022-11-07T21:00:01.661Z,99111.56
2022-11-07T21:05:21.961Z,99109.88
2022-11-07T21:10:24.911Z,99116.63
2022-11-07T21:15:27.792Z,99112.50
2022-11-07T21:20:32.096Z,99109.75
2022-11-07T21:25:35.430Z,99102.47
2022-11-07T21:30:38.851Z,99106.44
2022-11-07T21:35:43.461Z,99106.44
2022-11-07T21:40:46.378Z,99107.16
2022-11-07T21:45:49.339Z,99115.34
2022-11-07T21:50:53.605Z,99117.38
2022-11-07T21:56:00.147Z,99110.88
2022-11-07T22:01:03.707Z,99108.84
2022-11-07T22:06:10.381Z,99107.28
2022-11-07T22:11:13.311Z,99110.59
2022-11-07T22:16:18.825Z,99108.69
2022-11-07T22:21:24.546Z,99117.34
2022-11-07T22:26:28.944Z,99102.59
2022-11-07T22:31:32.511Z,99111.66
2022-11-07T22:36:36.847Z,99108.84
2022-11-07T22:41:40.038Z,99100.13
2022-11-07T22:46:42.947Z,99105.34
2022-11-07T22:51:47.274Z,99101.59
2022-11-07T22:56:50.163Z,99102.50
2022-11-07T23:01:53.211Z,99113.19
2022-11-07T23:06:57.566Z,99093.72
2022-11-07T23:12:00.518Z,99099.09
2022-11-07T23:17:03.552Z,99101.47
2022-11-07T23:22:07.887Z,99101.13
2022-11-07T23:27:10.779Z,99095.66
2022-11-07T23:32:16.372Z,99097.91
2022-11-07T23:37:20.665Z,99085.66
2022-11-07T23:42:23.591Z,99082.34
2022-11-07T23:47:44.031Z,99082.00
2022-11-07T23:52:48.303Z,99082.34
2022-11-07T23:58:08.833Z,99083.41
